sensor_id;sensor_type;location;lat;lon;timestamp;temperature;humidity
25918;DHT22;13899;51.174;4.456;2022-11-15T00:00:32;10.00;99.90
25918;DHT22;13899;51.174;4.456;2022-11-15T00:02:58;10.30;99.90
25918;DHT22;13899;51.174;4.456;2022-11-15T00:05:23;10.00;99.90
25918;DHT22;13899;51.174;4.456;2022-11-15T00:07:49;10.00;99.90
25918;DHT22;13899;51.174;4.456;2022-11-15T00:10:15;9.90;99.90
25918;DHT22;13899;51.174;4.456;2022-11-15T00:12:40;10.00;99.90
25918;DHT22;13899;51.174;4.456;2022-11-15T00:15:07;10.00;99.90
25918;DHT22;13899;51.174;4.456;2022-11-15T00:17:32;10.00;99.90
25918;DHT22;13899;51.174;4.456;2022-11-15T00:19:58;10.10;99.90
25918;DHT22;13899;51.174;4.456;2022-11-15T00:22:24;10.10;99.90
25918;DHT22;13899;51.174;4.456;2022-11-15T00:24:49;10.20;99.90
25918;DHT22;13899;51.174;4.456;2022-11-15T00:27:15;10.20;99.90
25918;DHT22;13899;51.174;4.456;2022-11-15T00:29:42;10.30;99.90
25918;DHT22;13899;51.174;4.456;2022-11-15T00:32:12;10.40;99.90
25918;DHT22;13899;51.174;4.456;2022-11-15T00:34:37;10.40;99.90
25918;DHT22;13899;51.174;4.456;2022-11-15T00:37:03;10.50;99.90
25918;DHT22;13899;51.174;4.456;2022-11-15T00:39:29;10.60;99.90
25918;DHT22;13899;51.174;4.456;2022-11-15T00:41:54;10.70;99.90
25918;DHT22;13899;51.174;4.456;2022-11-15T00:44:20;10.80;99.90
25918;DHT22;13899;51.174;4.456;2022-11-15T00:46:45;10.80;99.90
25918;DHT22;13899;51.174;4.456;2022-11-15T00:49:11;11.00;99.90
25918;DHT22;13899;51.174;4.456;2022-11-15T00:51:36;11.10;99.90
25918;DHT22;13899;51.174;4.456;2022-11-15T00:54:02;11.10;99.90
25918;DHT22;13899;51.174;4.456;2022-11-15T00:56:28;11.20;99.90
25918;DHT22;13899;51.174;4.456;2022-11-15T00:58:53;11.40;99.90
25918;DHT22;13899;51.174;4.456;2022-11-15T01:01:19;11.30;99.90
25918;DHT22;13899;51.174;4.456;2022-11-15T01:03:44;11.50;99.90
25918;DHT22;13899;51.174;4.456;2022-11-15T01:06:10;11.50;99.90
25918;DHT22;13899;51.174;4.456;2022-11-15T01:08:38;11.60;99.90
25918;DHT22;13899;51.174;4.456;2022-11-15T01:11:06;11.70;99.90
25918;DHT22;13899;51.174;4.456;2022-11-15T01:13:33;11.60;99.90
25918;DHT22;13899;51.174;4.456;2022-11-15T01:16:09;11.60;99.90
25918;DHT22;13899;51.174;4.456;2022-11-15T01:18:35;11.70;99.90
25918;DHT22;13899;51.174;4.456;2022-11-15T01:21:05;11.70;99.90
25918;DHT22;13899;51.174;4.456;2022-11-15T01:23:31;11.70;99.90
25918;DHT22;13899;51.174;4.456;2022-11-15T01:26:01;11.70;99.90
25918;DHT22;13899;51.174;4.456;2022-11-15T01:28:35;11.70;99.90
25918;DHT22;13899;51.174;4.456;2022-11-15T01:31:03;11.80;99.90
25918;DHT22;13899;51.174;4.456;2022-11-15T01:33:29;11.70;99.90
25918;DHT22;13899;51.174;4.456;2022-11-15T01:35:55;11.80;99.90
25918;DHT22;13899;51.174;4.456;2022-11-15T01:38:22;11.70;99.90
25918;DHT22;13899;51.174;4.456;2022-11-15T01:40:47;11.70;99.90
25918;DHT22;13899;51.174;4.456;2022-11-15T01:43:21;11.70;99.90
25918;DHT22;13899;51.174;4.456;2022-11-15T01:45:56;11.90;99.90
25918;DHT22;13899;51.174;4.456;2022-11-15T01:48:28;11.80;99.90
25918;DHT22;13899;51.174;4.456;2022-11-15T01:50:56;11.80;99.90
25918;DHT22;13899;51.174;4.456;2022-11-15T01:53:23;11.80;99.90
25918;DHT22;13899;51.174;4.456;2022-11-15T01:55:49;11.80;99.90
25918;DHT22;13899;51.174;4.456;2022-11-15T01:58:15;12.00;99.90
25918;DHT22;13899;51.174;4.456;2022-11-15T02:00:41;11.90;99.90
25918;DHT22;13899;51.174;4.456;2022-11-15T02:03:06;11.80;99.90
25918;DHT22;13899;51.174;4.456;2022-11-15T02:05:32;12.00;99.90
25918;DHT22;13899;51.174;4.456;2022-11-15T02:08:00;11.90;99.90
25918;DHT22;13899;51.174;4.456;2022-11-15T02:10:25;11.90;99.90
25918;DHT22;13899;51.174;4.456;2022-11-15T02:12:53;11.90;99.90
25918;DHT22;13899;51.174;4.456;2022-11-15T02:15:20;11.90;99.90
25918;DHT22;13899;51.174;4.456;2022-11-15T02:17:59;11.90;99.90
25918;DHT22;13899;51.174;4.456;2022-11-15T02:23:17;11.90;99.90
25918;DHT22;13899;51.174;4.456;2022-11-15T02:26:25;11.90;99.90
25918;DHT22;13899;51.174;4.456;2022-11-15T02:29:05;12.00;99.90
25918;DHT22;13899;51.174;4.456;2022-11-15T02:32:05;11.90;99.90
25918;DHT22;13899;51.174;4.456;2022-11-15T02:34:50;11.90;99.90
25918;DHT22;13899;51.174;4.456;2022-11-15T02:37:36;11.90;99.90
25918;DHT22;13899;51.174;4.456;2022-11-15T02:42:54;12.00;99.90
25918;DHT22;13899;51.174;4.456;2022-11-15T02:45:47;11.90;99.90
25918;DHT22;13899;51.174;4.456;2022-11-15T02:48:15;11.90;99.90
25918;DHT22;13899;51.174;4.456;2022-11-15T02:50:42;11.90;99.90
25918;DHT22;13899;51.174;4.456;2022-11-15T02:53:09;11.90;99.90
25918;DHT22;13899;51.174;4.456;2022-11-15T02:55:37;11.90;99.90
25918;DHT22;13899;51.174;4.456;2022-11-15T03:01:19;11.90;99.90
25918;DHT22;13899;51.174;4.456;2022-11-15T03:06:52;11.90;99.90
25918;DHT22;13899;51.174;4.456;2022-11-15T03:09:34;11.80;99.90
25918;DHT22;13899;51.174;4.456;2022-11-15T03:12:11;11.80;99.90
25918;DHT22;13899;51.174;4.456;2022-11-15T03:14:46;11.80;99.90
25918;DHT22;13899;51.174;4.456;2022-11-15T03:17:33;11.80;99.90
25918;DHT22;13899;51.174;4.456;2022-11-15T03:20:03;11.80;99.90
25918;DHT22;13899;51.174;4.456;2022-11-15T03:22:34;11.80;99.90
25918;DHT22;13899;51.174;4.456;2022-11-15T03:25:05;11.80;99.90
25918;DHT22;13899;51.174;4.456;2022-11-15T03:27:36;11.80;99.90
25918;DHT22;13899;51.174;4.456;2022-11-15T03:30:06;11.80;99.90
25918;DHT22;13899;51.174;4.456;2022-11-15T03:32:39;11.80;99.90
25918;DHT22;13899;51.174;4.456;2022-11-15T03:35:24;11.90;99.90
25918;DHT22;13899;51.174;4.456;2022-11-15T03:38:03;11.90;99.90
25918;DHT22;13899;51.174;4.456;2022-11-15T03:40:45;11.90;99.90
25918;DHT22;13899;51.174;4.456;2022-11-15T03:46:01;11.80;99.90
25918;DHT22;13899;51.174;4.456;2022-11-15T03:48:33;11.80;99.90
25918;DHT22;13899;51.174;4.456;2022-11-15T03:50:59;11.90;99.90
25918;DHT22;13899;51.174;4.456;2022-11-15T03:53:25;11.90;99.90
25918;DHT22;13899;51.174;4.456;2022-11-15T03:55:52;11.90;99.90
25918;DHT22;13899;51.174;4.456;2022-11-15T03:58:18;11.90;99.90
25918;DHT22;13899;51.174;4.456;2022-11-15T04:00:43;11.80;99.90
25918;DHT22;13899;51.174;4.456;2022-11-15T04:03:09;11.90;99.90
25918;DHT22;13899;51.174;4.456;2022-11-15T04:05:35;11.80;99.90
25918;DHT22;13899;51.174;4.456;2022-11-15T04:08:00;11.80;99.90
25918;DHT22;13899;51.174;4.456;2022-11-15T04:10:26;11.80;99.90
25918;DHT22;13899;51.174;4.456;2022-11-15T04:12:52;11.80;99.90
25918;DHT22;13899;51.174;4.456;2022-11-15T04:15:21;11.80;99.90
25918;DHT22;13899;51.174;4.456;2022-11-15T04:20:26;11.80;99.90
25918;DHT22;13899;51.174;4.456;2022-11-15T04:26:19;11.80;99.90
25918;DHT22;13899;51.174;4.456;2022-11-15T04:28:43;11.70;99.90
25918;DHT22;13899;51.174;4.456;2022-11-15T04:31:27;11.70;99.90
25918;DHT22;13899;51.174;4.456;2022-11-15T04:34:15;11.70;99.90
25918;DHT22;13899;51.174;4.456;2022-11-15T04:36:41;11.70;99.90
25918;DHT22;13899;51.174;4.456;2022-11-15T04:39:25;11.70;99.90
25918;DHT22;13899;51.174;4.456;2022-11-15T04:41:51;11.70;99.90
25918;DHT22;13899;51.174;4.456;2022-11-15T04:44:17;11.70;99.90
25918;DHT22;13899;51.174;4.456;2022-11-15T04:46:42;11.70;99.90
25918;DHT22;13899;51.174;4.456;2022-11-15T04:49:08;11.70;99.90
25918;DHT22;13899;51.174;4.456;2022-11-15T04:51:33;11.60;99.90
25918;DHT22;13899;51.174;4.456;2022-11-15T04:53:59;11.60;99.90
25918;DHT22;13899;51.174;4.456;2022-11-15T04:56:25;11.50;99.90
25918;DHT22;13899;51.174;4.456;2022-11-15T04:58:50;11.50;99.90
25918;DHT22;13899;51.174;4.456;2022-11-15T05:01:16;11.50;99.90
25918;DHT22;13899;51.174;4.456;2022-11-15T05:03:43;11.50;99.90
25918;DHT22;13899;51.174;4.456;2022-11-15T05:06:27;11.50;99.90
25918;DHT22;13899;51.174;4.456;2022-11-15T05:08:53;11.50;99.90
25918;DHT22;13899;51.174;4.456;2022-11-15T05:11:19;11.50;99.90
25918;DHT22;13899;51.174;4.456;2022-11-15T05:13:46;11.40;99.90
25918;DHT22;13899;51.174;4.456;2022-11-15T05:16:11;11.40;99.90
25918;DHT22;13899;51.174;4.456;2022-11-15T05:18:37;11.40;99.90
25918;DHT22;13899;51.174;4.456;2022-11-15T05:21:11;11.40;99.90
25918;DHT22;13899;51.174;4.456;2022-11-15T05:23:37;11.30;99.90
25918;DHT22;13899;51.174;4.456;2022-11-15T05:26:05;11.30;99.90
25918;DHT22;13899;51.174;4.456;2022-11-15T05:28:31;11.30;99.90
25918;DHT22;13899;51.174;4.456;2022-11-15T05:31:12;11.20;99.90
25918;DHT22;13899;51.174;4.456;2022-11-15T05:33:39;11.20;99.90
25918;DHT22;13899;51.174;4.456;2022-11-15T05:38:34;11.00;99.90
25918;DHT22;13899;51.174;4.456;2022-11-15T05:41:00;11.00;99.90
25918;DHT22;13899;51.174;4.456;2022-11-15T05:43:29;11.10;99.90
25918;DHT22;13899;51.174;4.456;2022-11-15T05:45:57;10.90;99.90
25918;DHT22;13899;51.174;4.456;2022-11-15T05:48:23;10.90;99.90
25918;DHT22;13899;51.174;4.456;2022-11-15T05:50:48;10.90;99.90
25918;DHT22;13899;51.174;4.456;2022-11-15T05:53:16;10.90;99.90
25918;DHT22;13899;51.174;4.456;2022-11-15T05:55:48;10.90;99.90
25918;DHT22;13899;51.174;4.456;2022-11-15T05:58:16;10.90;99.90
25918;DHT22;13899;51.174;4.456;2022-11-15T06:00:41;11.00;99.90
25918;DHT22;13899;51.174;4.456;2022-11-15T06:03:09;11.00;99.90
25918;DHT22;13899;51.174;4.456;2022-11-15T06:05:34;10.90;99.90
25918;DHT22;13899;51.174;4.456;2022-11-15T06:08:00;10.90;99.90
25918;DHT22;13899;51.174;4.456;2022-11-15T06:10:26;10.90;99.90
25918;DHT22;13899;51.174;4.456;2022-11-15T06:12:59;10.90;99.90
25918;DHT22;13899;51.174;4.456;2022-11-15T06:15:25;10.90;99.90
25918;DHT22;13899;51.174;4.456;2022-11-15T06:17:51;10.90;99.90
25918;DHT22;13899;51.174;4.456;2022-11-15T06:20:17;10.80;99.90
25918;DHT22;13899;51.174;4.456;2022-11-15T06:22:43;10.80;99.90
25918;DHT22;13899;51.174;4.456;2022-11-15T06:25:09;10.80;99.90
25918;DHT22;13899;51.174;4.456;2022-11-15T06:27:34;10.70;99.90
25918;DHT22;13899;51.174;4.456;2022-11-15T06:30:00;10.60;99.90
25918;DHT22;13899;51.174;4.456;2022-11-15T06:32:29;10.60;99.90
25918;DHT22;13899;51.174;4.456;2022-11-15T06:34:55;10.60;99.90
25918;DHT22;13899;51.174;4.456;2022-11-15T06:37:20;10.50;99.90
25918;DHT22;13899;51.174;4.456;2022-11-15T06:39:46;10.50;99.90
25918;DHT22;13899;51.174;4.456;2022-11-15T06:42:11;10.60;99.90
25918;DHT22;13899;51.174;4.456;2022-11-15T06:44:37;10.70;99.90
25918;DHT22;13899;51.174;4.456;2022-11-15T06:47:04;10.70;99.90
25918;DHT22;13899;51.174;4.456;2022-11-15T06:49:33;10.70;99.90
25918;DHT22;13899;51.174;4.456;2022-11-15T06:51:58;10.70;99.90
25918;DHT22;13899;51.174;4.456;2022-11-15T06:54:24;10.60;99.90
25918;DHT22;13899;51.174;4.456;2022-11-15T06:57:05;10.60;99.90
25918;DHT22;13899;51.174;4.456;2022-11-15T06:59:32;10.50;99.90
25918;DHT22;13899;51.174;4.456;2022-11-15T07:01:59;10.50;99.90
25918;DHT22;13899;51.174;4.456;2022-11-15T07:04:28;10.30;99.90
25918;DHT22;13899;51.174;4.456;2022-11-15T07:06:57;10.30;99.90
25918;DHT22;13899;51.174;4.456;2022-11-15T07:09:37;10.20;99.90
25918;DHT22;13899;51.174;4.456;2022-11-15T07:12:04;10.20;99.90
25918;DHT22;13899;51.174;4.456;2022-11-15T07:14:30;10.10;99.90
25918;DHT22;13899;51.174;4.456;2022-11-15T07:16:56;10.10;99.90
25918;DHT22;13899;51.174;4.456;2022-11-15T07:19:21;10.10;99.90
25918;DHT22;13899;51.174;4.456;2022-11-15T07:21:47;10.00;99.90
25918;DHT22;13899;51.174;4.456;2022-11-15T07:24:13;10.00;99.90
25918;DHT22;13899;51.174;4.456;2022-11-15T07:26:38;9.90;99.90
25918;DHT22;13899;51.174;4.456;2022-11-15T07:29:04;9.90;99.90
25918;DHT22;13899;51.174;4.456;2022-11-15T07:31:31;9.90;99.90
25918;DHT22;13899;51.174;4.456;2022-11-15T07:33:56;9.90;99.90
25918;DHT22;13899;51.174;4.456;2022-11-15T07:36:22;9.90;99.90
25918;DHT22;13899;51.174;4.456;2022-11-15T07:38:48;9.90;99.90
25918;DHT22;13899;51.174;4.456;2022-11-15T07:41:13;9.90;99.90
25918;DHT22;13899;51.174;4.456;2022-11-15T07:43:39;9.90;99.90
25918;DHT22;13899;51.174;4.456;2022-11-15T07:46:08;10.00;99.90
25918;DHT22;13899;51.174;4.456;2022-11-15T07:48:35;10.00;99.90
25918;DHT22;13899;51.174;4.456;2022-11-15T07:51:01;10.00;99.90
25918;DHT22;13899;51.174;4.456;2022-11-15T07:53:27;10.10;99.90
25918;DHT22;13899;51.174;4.456;2022-11-15T07:55:53;10.00;99.90
25918;DHT22;13899;51.174;4.456;2022-11-15T07:58:22;10.00;99.90
25918;DHT22;13899;51.174;4.456;2022-11-15T08:00:48;10.20;99.90
25918;DHT22;13899;51.174;4.456;2022-11-15T08:03:15;10.10;99.90
25918;DHT22;13899;51.174;4.456;2022-11-15T08:05:43;10.10;99.90
25918;DHT22;13899;51.174;4.456;2022-11-15T08:08:16;10.20;99.90
25918;DHT22;13899;51.174;4.456;2022-11-15T08:10:41;10.20;99.90
25918;DHT22;13899;51.174;4.456;2022-11-15T08:13:09;10.20;99.90
25918;DHT22;13899;51.174;4.456;2022-11-15T08:15:35;10.20;99.90
25918;DHT22;13899;51.174;4.456;2022-11-15T08:18:06;10.30;99.90
25918;DHT22;13899;51.174;4.456;2022-11-15T08:20:33;10.40;99.90
25918;DHT22;13899;51.174;4.456;2022-11-15T08:23:02;10.40;99.90
25918;DHT22;13899;51.174;4.456;2022-11-15T08:25:29;10.40;99.90
25918;DHT22;13899;51.174;4.456;2022-11-15T08:28:00;10.40;99.90
25918;DHT22;13899;51.174;4.456;2022-11-15T08:30:26;10.50;99.90
25918;DHT22;13899;51.174;4.456;2022-11-15T08:32:53;10.40;99.90
25918;DHT22;13899;51.174;4.456;2022-11-15T08:35:20;10.50;99.90
25918;DHT22;13899;51.174;4.456;2022-11-15T08:37:46;10.70;99.90
25918;DHT22;13899;51.174;4.456;2022-11-15T08:40:13;10.60;99.90
25918;DHT22;13899;51.174;4.456;2022-11-15T08:42:39;10.70;99.90
25918;DHT22;13899;51.174;4.456;2022-11-15T08:45:07;10.60;99.90
25918;DHT22;13899;51.174;4.456;2022-11-15T08:47:34;10.70;99.90
25918;DHT22;13899;51.174;4.456;2022-11-15T08:50:02;10.70;99.90
25918;DHT22;13899;51.174;4.456;2022-11-15T08:52:34;10.90;99.90
25918;DHT22;13899;51.174;4.456;2022-11-15T08:55:03;10.90;99.90
25918;DHT22;13899;51.174;4.456;2022-11-15T08:57:30;10.90;99.90
25918;DHT22;13899;51.174;4.456;2022-11-15T08:59:57;10.90;99.90
25918;DHT22;13899;51.174;4.456;2022-11-15T09:02:26;10.90;99.90
25918;DHT22;13899;51.174;4.456;2022-11-15T09:04:55;10.90;99.90
25918;DHT22;13899;51.174;4.456;2022-11-15T09:07:22;11.00;99.90
25918;DHT22;13899;51.174;4.456;2022-11-15T09:09:49;11.00;99.90
25918;DHT22;13899;51.174;4.456;2022-11-15T09:12:20;11.00;99.90
25918;DHT22;13899;51.174;4.456;2022-11-15T09:14:47;11.00;99.90
25918;DHT22;13899;51.174;4.456;2022-11-15T09:17:16;11.10;99.90
25918;DHT22;13899;51.174;4.456;2022-11-15T09:19:42;11.00;99.90
25918;DHT22;13899;51.174;4.456;2022-11-15T09:22:08;11.20;99.90
25918;DHT22;13899;51.174;4.456;2022-11-15T09:24:35;11.30;99.90
25918;DHT22;13899;51.174;4.456;2022-11-15T09:27:03;11.40;99.90
25918;DHT22;13899;51.174;4.456;2022-11-15T09:29:32;11.50;99.90
25918;DHT22;13899;51.174;4.456;2022-11-15T09:31:58;11.70;99.90
25918;DHT22;13899;51.174;4.456;2022-11-15T09:34:26;12.10;99.90
25918;DHT22;13899;51.174;4.456;2022-11-15T09:36:54;12.00;99.90
25918;DHT22;13899;51.174;4.456;2022-11-15T09:39:20;12.10;99.90
25918;DHT22;13899;51.174;4.456;2022-11-15T09:49:54;12.10;99.90
25918;DHT22;13899;51.174;4.456;2022-11-15T09:52:22;11.90;99.90
25918;DHT22;13899;51.174;4.456;2022-11-15T09:54:50;12.00;99.90
25918;DHT22;13899;51.174;4.456;2022-11-15T09:57:20;12.20;99.90
25918;DHT22;13899;51.174;4.456;2022-11-15T10:04:54;12.60;99.90
25918;DHT22;13899;51.174;4.456;2022-11-15T10:07:50;12.80;99.90
25918;DHT22;13899;51.174;4.456;2022-11-15T10:10:39;13.00;99.90
25918;DHT22;13899;51.174;4.456;2022-11-15T10:13:16;13.20;99.90
25918;DHT22;13899;51.174;4.456;2022-11-15T10:15:46;13.30;99.90
25918;DHT22;13899;51.174;4.456;2022-11-15T10:18:26;13.30;99.90
25918;DHT22;13899;51.174;4.456;2022-11-15T10:21:24;13.80;99.90
25918;DHT22;13899;51.174;4.456;2022-11-15T10:23:50;14.30;99.90
25918;DHT22;13899;51.174;4.456;2022-11-15T10:26:18;13.80;99.90
25918;DHT22;13899;51.174;4.456;2022-11-15T10:28:45;13.70;99.90
25918;DHT22;13899;51.174;4.456;2022-11-15T10:31:27;13.90;99.90
25918;DHT22;13899;51.174;4.456;2022-11-15T10:34:21;14.00;99.90
25918;DHT22;13899;51.174;4.456;2022-11-15T10:36:58;14.00;99.90
25918;DHT22;13899;51.174;4.456;2022-11-15T10:39:30;13.70;99.90
25918;DHT22;13899;51.174;4.456;2022-11-15T10:42:25;13.80;99.90
25918;DHT22;13899;51.174;4.456;2022-11-15T10:44:53;13.40;99.90
25918;DHT22;13899;51.174;4.456;2022-11-15T10:47:33;13.40;99.90
25918;DHT22;13899;51.174;4.456;2022-11-15T10:50:07;13.50;99.90
25918;DHT22;13899;51.174;4.456;2022-11-15T10:52:50;13.30;99.90
25918;DHT22;13899;51.174;4.456;2022-11-15T10:55:24;13.60;99.90
25918;DHT22;13899;51.174;4.456;2022-11-15T10:58:19;14.00;99.90
25918;DHT22;13899;51.174;4.456;2022-11-15T11:00:46;13.90;99.90
25918;DHT22;13899;51.174;4.456;2022-11-15T11:03:35;13.80;99.90
25918;DHT22;13899;51.174;4.456;2022-11-15T11:08:30;13.90;99.90
25918;DHT22;13899;51.174;4.456;2022-11-15T11:11:02;14.00;99.90
25918;DHT22;13899;51.174;4.456;2022-11-15T11:13:32;13.70;99.90
25918;DHT22;13899;51.174;4.456;2022-11-15T11:16:31;13.70;99.90
25918;DHT22;13899;51.174;4.456;2022-11-15T11:35:39;14.00;99.90
25918;DHT22;13899;51.174;4.456;2022-11-15T11:44:26;14.20;99.90
25918;DHT22;13899;51.174;4.456;2022-11-15T11:47:15;13.70;99.90
25918;DHT22;13899;51.174;4.456;2022-11-15T11:49:51;13.70;99.90
25918;DHT22;13899;51.174;4.456;2022-11-15T11:52:20;13.80;99.90
25918;DHT22;13899;51.174;4.456;2022-11-15T12:00:27;13.50;99.90
25918;DHT22;13899;51.174;4.456;2022-11-15T12:05:56;13.70;99.90
25918;DHT22;13899;51.174;4.456;2022-11-15T12:08:41;13.80;99.90
25918;DHT22;13899;51.174;4.456;2022-11-15T12:11:21;13.80;99.90
25918;DHT22;13899;51.174;4.456;2022-11-15T12:13:56;14.00;99.90
25918;DHT22;13899;51.174;4.456;2022-11-15T12:16:27;14.00;99.90
25918;DHT22;13899;51.174;4.456;2022-11-15T12:19:02;13.80;99.90
25918;DHT22;13899;51.174;4.456;2022-11-15T12:21:49;13.50;99.90
25918;DHT22;13899;51.174;4.456;2022-11-15T12:24:25;13.50;99.90
25918;DHT22;13899;51.174;4.456;2022-11-15T12:27:18;13.30;99.90
25918;DHT22;13899;51.174;4.456;2022-11-15T12:29:54;13.20;99.90
25918;DHT22;13899;51.174;4.456;2022-11-15T12:32:28;13.30;99.90
25918;DHT22;13899;51.174;4.456;2022-11-15T12:34:57;13.40;99.90
25918;DHT22;13899;51.174;4.456;2022-11-15T12:40:32;13.40;99.90
25918;DHT22;13899;51.174;4.456;2022-11-15T12:45:45;13.60;99.90
25918;DHT22;13899;51.174;4.456;2022-11-15T12:50:55;13.70;99.90
25918;DHT22;13899;51.174;4.456;2022-11-15T13:04:27;13.70;99.90
25918;DHT22;13899;51.174;4.456;2022-11-15T13:06:55;13.80;99.90
25918;DHT22;13899;51.174;4.456;2022-11-15T13:12:00;13.70;99.90
25918;DHT22;13899;51.174;4.456;2022-11-15T13:14:47;13.70;99.90
25918;DHT22;13899;51.174;4.456;2022-11-15T13:17:33;13.90;99.90
25918;DHT22;13899;51.174;4.456;2022-11-15T13:20:00;14.20;99.90
25918;DHT22;13899;51.174;4.456;2022-11-15T13:22:27;13.90;99.90
25918;DHT22;13899;51.174;4.456;2022-11-15T13:27:51;14.40;99.90
25918;DHT22;13899;51.174;4.456;2022-11-15T13:30:26;14.20;99.90
25918;DHT22;13899;51.174;4.456;2022-11-15T13:32:53;14.20;99.90
25918;DHT22;13899;51.174;4.456;2022-11-15T13:35:38;14.30;99.90
25918;DHT22;13899;51.174;4.456;2022-11-15T13:38:04;14.10;99.90
25918;DHT22;13899;51.174;4.456;2022-11-15T13:40:36;13.90;99.90
25918;DHT22;13899;51.174;4.456;2022-11-15T13:48:51;13.90;99.90
25918;DHT22;13899;51.174;4.456;2022-11-15T13:54:18;13.70;99.90
25918;DHT22;13899;51.174;4.456;2022-11-15T13:59:33;13.80;99.90
25918;DHT22;13899;51.174;4.456;2022-11-15T14:02:03;13.80;99.90
25918;DHT22;13899;51.174;4.456;2022-11-15T14:04:39;13.80;99.90
25918;DHT22;13899;51.174;4.456;2022-11-15T14:07:17;13.80;99.90
25918;DHT22;13899;51.174;4.456;2022-11-15T14:09:47;13.90;99.90
25918;DHT22;13899;51.174;4.456;2022-11-15T14:12:35;13.80;99.90
25918;DHT22;13899;51.174;4.456;2022-11-15T14:15:18;13.60;99.90
25918;DHT22;13899;51.174;4.456;2022-11-15T14:17:48;13.60;99.90
25918;DHT22;13899;51.174;4.456;2022-11-15T14:20:30;13.60;99.90
25918;DHT22;13899;51.174;4.456;2022-11-15T14:23:01;13.60;99.90
25918;DHT22;13899;51.174;4.456;2022-11-15T14:25:32;13.70;99.90
25918;DHT22;13899;51.174;4.456;2022-11-15T14:28:16;13.70;99.90
25918;DHT22;13899;51.174;4.456;2022-11-15T14:30:57;13.70;99.90
25918;DHT22;13899;51.174;4.456;2022-11-15T14:33:35;13.70;99.90
25918;DHT22;13899;51.174;4.456;2022-11-15T14:36:19;13.60;99.90
25918;DHT22;13899;51.174;4.456;2022-11-15T14:38:53;13.60;99.90
25918;DHT22;13899;51.174;4.456;2022-11-15T14:41:24;13.60;99.90
25918;DHT22;13899;51.174;4.456;2022-11-15T14:43:52;13.60;99.90
25918;DHT22;13899;51.174;4.456;2022-11-15T14:46:41;13.60;99.90
25918;DHT22;13899;51.174;4.456;2022-11-15T14:49:08;13.60;99.90
25918;DHT22;13899;51.174;4.456;2022-11-15T14:51:36;13.60;99.90
25918;DHT22;13899;51.174;4.456;2022-11-15T14:54:02;13.50;99.90
25918;DHT22;13899;51.174;4.456;2022-11-15T14:56:28;13.30;99.90
25918;DHT22;13899;51.174;4.456;2022-11-15T14:58:55;13.10;99.90
25918;DHT22;13899;51.174;4.456;2022-11-15T15:01:25;12.90;99.90
25918;DHT22;13899;51.174;4.456;2022-11-15T15:03:52;12.80;99.90
25918;DHT22;13899;51.174;4.456;2022-11-15T15:06:26;12.70;99.90
25918;DHT22;13899;51.174;4.456;2022-11-15T15:08:52;12.60;99.90
25918;DHT22;13899;51.174;4.456;2022-11-15T15:11:25;12.50;99.90
25918;DHT22;13899;51.174;4.456;2022-11-15T15:13:57;12.60;99.90
25918;DHT22;13899;51.174;4.456;2022-11-15T15:16:26;12.60;99.90
25918;DHT22;13899;51.174;4.456;2022-11-15T15:18:56;12.60;99.90
25918;DHT22;13899;51.174;4.456;2022-11-15T15:21:41;12.60;99.90
25918;DHT22;13899;51.174;4.456;2022-11-15T15:24:28;12.50;99.90
25918;DHT22;13899;51.174;4.456;2022-11-15T15:26:54;12.50;99.90
25918;DHT22;13899;51.174;4.456;2022-11-15T15:29:29;12.50;99.90
25918;DHT22;13899;51.174;4.456;2022-11-15T15:31:55;12.40;99.90
25918;DHT22;13899;51.174;4.456;2022-11-15T15:34:24;12.40;99.90
25918;DHT22;13899;51.174;4.456;2022-11-15T15:36:49;12.40;99.90
25918;DHT22;13899;51.174;4.456;2022-11-15T15:39:20;12.40;99.90
25918;DHT22;13899;51.174;4.456;2022-11-15T15:41:52;12.40;99.90
25918;DHT22;13899;51.174;4.456;2022-11-15T15:44:19;12.30;99.90
25918;DHT22;13899;51.174;4.456;2022-11-15T15:46:50;12.40;99.90
25918;DHT22;13899;51.174;4.456;2022-11-15T15:49:16;12.40;99.90
25918;DHT22;13899;51.174;4.456;2022-11-15T15:51:43;12.30;99.90
25918;DHT22;13899;51.174;4.456;2022-11-15T15:54:08;12.40;99.90
25918;DHT22;13899;51.174;4.456;2022-11-15T15:56:34;12.40;99.90
25918;DHT22;13899;51.174;4.456;2022-11-15T15:59:01;12.30;99.90
25918;DHT22;13899;51.174;4.456;2022-11-15T16:01:27;12.30;99.90
25918;DHT22;13899;51.174;4.456;2022-11-15T16:03:52;12.20;99.90
25918;DHT22;13899;51.174;4.456;2022-11-15T16:06:37;12.20;99.90
25918;DHT22;13899;51.174;4.456;2022-11-15T16:09:03;12.20;99.90
25918;DHT22;13899;51.174;4.456;2022-11-15T16:11:29;12.10;99.90
25918;DHT22;13899;51.174;4.456;2022-11-15T16:13:55;12.10;99.90
25918;DHT22;13899;51.174;4.456;2022-11-15T16:16:21;12.10;99.90
25918;DHT22;13899;51.174;4.456;2022-11-15T16:18:47;12.10;99.90
25918;DHT22;13899;51.174;4.456;2022-11-15T16:21:12;12.10;99.90
25918;DHT22;13899;51.174;4.456;2022-11-15T16:23:38;12.00;99.90
25918;DHT22;13899;51.174;4.456;2022-11-15T16:26:21;12.10;99.90
25918;DHT22;13899;51.174;4.456;2022-11-15T16:28:47;12.10;99.90
25918;DHT22;13899;51.174;4.456;2022-11-15T16:31:12;12.00;99.90
25918;DHT22;13899;51.174;4.456;2022-11-15T16:33:39;12.10;99.90
25918;DHT22;13899;51.174;4.456;2022-11-15T16:36:06;12.10;99.90
25918;DHT22;13899;51.174;4.456;2022-11-15T16:38:37;12.10;99.90
25918;DHT22;13899;51.174;4.456;2022-11-15T16:41:04;12.20;99.90
25918;DHT22;13899;51.174;4.456;2022-11-15T16:43:29;12.10;99.90
25918;DHT22;13899;51.174;4.456;2022-11-15T16:45:56;12.10;99.90
25918;DHT22;13899;51.174;4.456;2022-11-15T16:48:25;12.10;99.90
25918;DHT22;13899;51.174;4.456;2022-11-15T16:50:59;12.20;99.90
25918;DHT22;13899;51.174;4.456;2022-11-15T16:53:26;12.10;99.90
25918;DHT22;13899;51.174;4.456;2022-11-15T16:55:52;12.00;99.90
25918;DHT22;13899;51.174;4.456;2022-11-15T16:58:17;11.90;99.90
25918;DHT22;13899;51.174;4.456;2022-11-15T17:00:43;11.90;99.90
25918;DHT22;13899;51.174;4.456;2022-11-15T17:03:09;12.00;99.90
25918;DHT22;13899;51.174;4.456;2022-11-15T17:05:35;12.00;99.90
25918;DHT22;13899;51.174;4.456;2022-11-15T17:08:00;12.00;99.90
25918;DHT22;13899;51.174;4.456;2022-11-15T17:10:26;12.00;99.90
25918;DHT22;13899;51.174;4.456;2022-11-15T17:12:54;12.00;99.90
25918;DHT22;13899;51.174;4.456;2022-11-15T17:15:20;12.00;99.90
25918;DHT22;13899;51.174;4.456;2022-11-15T17:17:51;12.10;99.90
25918;DHT22;13899;51.174;4.456;2022-11-15T17:20:19;12.10;99.90
25918;DHT22;13899;51.174;4.456;2022-11-15T17:22:44;12.10;99.90
25918;DHT22;13899;51.174;4.456;2022-11-15T17:25:11;12.20;99.90
25918;DHT22;13899;51.174;4.456;2022-11-15T17:27:37;12.00;99.90
25918;DHT22;13899;51.174;4.456;2022-11-15T17:30:05;12.00;99.90
25918;DHT22;13899;51.174;4.456;2022-11-15T17:32:31;12.10;99.90
25918;DHT22;13899;51.174;4.456;2022-11-15T17:34:57;12.10;99.90